sensor_id;sensor_type;location;lat;lon;timestamp;P1;durP1;ratioP1;P2;durP2;ratioP2
82000;SDS011;71510;50.558;7.258;2023-10-09T16:30:39;15.00;;;5.30;;
82000;SDS011;71510;50.558;7.258;2023-10-09T16:33:07;11.03;;;4.95;;
82000;SDS011;71510;50.558;7.258;2023-10-09T16:35:35;8.48;;;4.95;;
82000;SDS011;71510;50.558;7.258;2023-10-09T16:38:04;12.33;;;5.47;;
82000;SDS011;71510;50.558;7.258;2023-10-09T16:40:33;13.35;;;5.33;;
82000;SDS011;71510;50.558;7.258;2023-10-09T16:43:01;9.80;;;4.85;;
82000;SDS011;71510;50.558;7.258;2023-10-09T16:45:28;9.25;;;4.97;;
82000;SDS011;71510;50.558;7.258;2023-10-09T16:47:55;11.90;;;5.47;;
82000;SDS011;71510;50.558;7.258;2023-10-09T16:50:24;12.68;;;5.45;;
82000;SDS011;71510;50.558;7.258;2023-10-09T16:52:55;15.00;;;5.67;;
82000;SDS011;71510;50.558;7.258;2023-10-09T16:55:22;8.13;;;5.10;;
82000;SDS011;71510;50.558;7.258;2023-10-09T16:57:50;11.95;;;6.00;;
82000;SDS011;71510;50.558;7.258;2023-10-09T17:00:18;21.10;;;6.10;;
82000;SDS011;71510;50.558;7.258;2023-10-09T17:02:55;17.98;;;5.62;;
82000;SDS011;71510;50.558;7.258;2023-10-09T17:05:27;14.43;;;6.12;;
82000;SDS011;71510;50.558;7.258;2023-10-09T17:07:56;22.17;;;6.40;;
82000;SDS011;71510;50.558;7.258;2023-10-09T17:10:25;11.15;;;6.55;;
82000;SDS011;71510;50.558;7.258;2023-10-09T17:12:54;16.00;;;7.35;;
82000;SDS011;71510;50.558;7.258;2023-10-09T17:15:22;18.75;;;6.55;;
82000;SDS011;71510;50.558;7.258;2023-10-09T17:17:51;15.95;;;7.10;;
82000;SDS011;71510;50.558;7.258;2023-10-09T17:20:19;15.13;;;6.10;;
82000;SDS011;71510;50.558;7.258;2023-10-09T17:22:47;15.60;;;5.97;;
82000;SDS011;71510;50.558;7.258;2023-10-09T17:25:15;14.47;;;7.28;;
82000;SDS011;71510;50.558;7.258;2023-10-09T17:27:43;16.27;;;6.50;;
82000;SDS011;71510;50.558;7.258;2023-10-09T17:30:11;11.85;;;6.25;;
82000;SDS011;71510;50.558;7.258;2023-10-09T17:32:40;16.27;;;6.35;;
82000;SDS011;71510;50.558;7.258;2023-10-09T17:35:07;13.70;;;6.85;;
82000;SDS011;71510;50.558;7.258;2023-10-09T17:37:38;10.65;;;5.80;;
82000;SDS011;71510;50.558;7.258;2023-10-09T17:40:05;14.93;;;6.78;;
82000;SDS011;71510;50.558;7.258;2023-10-09T17:42:38;10.28;;;6.03;;
82000;SDS011;71510;50.558;7.258;2023-10-09T17:45:02;13.83;;;6.65;;
82000;SDS011;71510;50.558;7.258;2023-10-09T17:47:32;10.23;;;6.15;;
82000;SDS011;71510;50.558;7.258;2023-10-09T17:50:03;14.03;;;6.53;;
82000;SDS011;71510;50.558;7.258;2023-10-09T17:52:31;20.82;;;6.75;;
82000;SDS011;71510;50.558;7.258;2023-10-09T17:55:01;17.73;;;6.60;;
82000;SDS011;71510;50.558;7.258;2023-10-09T17:57:30;19.35;;;6.50;;
82000;SDS011;71510;50.558;7.258;2023-10-09T17:59:57;15.05;;;7.08;;
82000;SDS011;71510;50.558;7.258;2023-10-09T18:02:25;14.78;;;6.47;;
82000;SDS011;71510;50.558;7.258;2023-10-09T18:04:54;18.10;;;6.80;;
82000;SDS011;71510;50.558;7.258;2023-10-09T18:07:21;19.23;;;7.67;;
82000;SDS011;71510;50.558;7.258;2023-10-09T18:09:49;14.87;;;6.83;;
82000;SDS011;71510;50.558;7.258;2023-10-09T18:12:22;18.30;;;8.03;;
82000;SDS011;71510;50.558;7.258;2023-10-09T18:14:51;18.40;;;7.03;;
82000;SDS011;71510;50.558;7.258;2023-10-09T18:17:21;18.17;;;6.85;;
82000;SDS011;71510;50.558;7.258;2023-10-09T18:19:49;13.45;;;6.75;;
82000;SDS011;71510;50.558;7.258;2023-10-09T18:22:18;17.25;;;8.78;;
82000;SDS011;71510;50.558;7.258;2023-10-09T18:24:45;28.32;;;13.55;;
82000;SDS011;71510;50.558;7.258;2023-10-09T18:27:13;20.02;;;9.50;;
82000;SDS011;71510;50.558;7.258;2023-10-09T18:29:43;10.60;;;7.87;;
82000;SDS011;71510;50.558;7.258;2023-10-09T18:32:12;16.35;;;7.75;;
82000;SDS011;71510;50.558;7.258;2023-10-09T18:34:40;12.50;;;6.70;;
82000;SDS011;71510;50.558;7.258;2023-10-09T18:37:07;10.93;;;7.37;;
82000;SDS011;71510;50.558;7.258;2023-10-09T18:39:34;16.10;;;7.53;;
82000;SDS011;71510;50.558;7.258;2023-10-09T18:42:03;17.77;;;6.75;;
82000;SDS011;71510;50.558;7.258;2023-10-09T18:44:33;13.53;;;7.37;;
82000;SDS011;71510;50.558;7.258;2023-10-09T18:47:00;17.05;;;7.42;;
82000;SDS011;71510;50.558;7.258;2023-10-09T18:49:27;14.93;;;8.65;;
82000;SDS011;71510;50.558;7.258;2023-10-09T18:51:55;15.63;;;8.25;;
82000;SDS011;71510;50.558;7.258;2023-10-09T18:54:22;13.05;;;8.25;;
82000;SDS011;71510;50.558;7.258;2023-10-09T18:56:49;15.05;;;8.05;;
82000;SDS011;71510;50.558;7.258;2023-10-09T18:59:17;13.98;;;7.58;;
82000;SDS011;71510;50.558;7.258;2023-10-09T19:01:46;11.93;;;7.03;;
82000;SDS011;71510;50.558;7.258;2023-10-09T19:04:13;12.80;;;8.03;;
82000;SDS011;71510;50.558;7.258;2023-10-09T19:06:40;13.00;;;7.53;;
82000;SDS011;71510;50.558;7.258;2023-10-09T19:09:08;11.15;;;7.05;;
82000;SDS011;71510;50.558;7.258;2023-10-09T19:11:37;15.90;;;8.70;;
82000;SDS011;71510;50.558;7.258;2023-10-09T19:14:05;13.20;;;7.40;;
82000;SDS011;71510;50.558;7.258;2023-10-09T19:16:34;13.45;;;8.33;;
82000;SDS011;71510;50.558;7.258;2023-10-09T19:19:01;16.73;;;9.20;;
82000;SDS011;71510;50.558;7.258;2023-10-09T19:21:30;19.77;;;8.13;;
82000;SDS011;71510;50.558;7.258;2023-10-09T19:23:59;16.97;;;8.68;;
82000;SDS011;71510;50.558;7.258;2023-10-09T19:26:26;13.55;;;8.83;;
82000;SDS011;71510;50.558;7.258;2023-10-09T19:28:55;19.10;;;9.10;;
82000;SDS011;71510;50.558;7.258;2023-10-09T19:31:23;14.85;;;8.45;;
82000;SDS011;71510;50.558;7.258;2023-10-09T19:33:51;17.55;;;8.83;;
82000;SDS011;71510;50.558;7.258;2023-10-09T19:36:18;18.52;;;9.55;;
82000;SDS011;71510;50.558;7.258;2023-10-09T19:38:47;16.52;;;8.78;;
82000;SDS011;71510;50.558;7.258;2023-10-09T19:41:23;20.80;;;9.80;;
82000;SDS011;71510;50.558;7.258;2023-10-09T19:43:52;23.70;;;9.70;;
82000;SDS011;71510;50.558;7.258;2023-10-09T19:46:16;16.75;;;9.40;;
82000;SDS011;71510;50.558;7.258;2023-10-09T19:48:48;18.40;;;9.63;;
82000;SDS011;71510;50.558;7.258;2023-10-09T19:51:13;18.23;;;8.95;;
82000;SDS011;71510;50.558;7.258;2023-10-09T19:53:42;15.35;;;9.38;;
82000;SDS011;71510;50.558;7.258;2023-10-09T19:56:10;18.23;;;9.58;;
82000;SDS011;71510;50.558;7.258;2023-10-09T19:58:38;12.75;;;8.25;;
82000;SDS011;71510;50.558;7.258;2023-10-09T20:01:11;12.80;;;8.30;;
82000;SDS011;71510;50.558;7.258;2023-10-09T20:03:38;13.80;;;8.88;;
82000;SDS011;71510;50.558;7.258;2023-10-09T20:06:09;15.65;;;8.95;;
82000;SDS011;71510;50.558;7.258;2023-10-09T20:08:36;15.20;;;8.58;;
82000;SDS011;71510;50.558;7.258;2023-10-09T20:11:07;20.95;;;10.25;;
82000;SDS011;71510;50.558;7.258;2023-10-09T20:13:35;15.72;;;9.03;;
82000;SDS011;71510;50.558;7.258;2023-10-09T20:16:03;21.95;;;8.70;;
82000;SDS011;71510;50.558;7.258;2023-10-09T20:18:30;13.08;;;8.15;;
82000;SDS011;71510;50.558;7.258;2023-10-09T20:21:01;15.43;;;9.38;;
82000;SDS011;71510;50.558;7.258;2023-10-09T20:23:48;15.83;;;8.95;;
82000;SDS011;71510;50.558;7.258;2023-10-09T20:26:16;13.50;;;8.75;;
82000;SDS011;71510;50.558;7.258;2023-10-09T20:28:43;15.83;;;8.55;;
82000;SDS011;71510;50.558;7.258;2023-10-09T20:31:11;14.15;;;8.68;;
82000;SDS011;71510;50.558;7.258;2023-10-09T20:33:39;11.12;;;7.83;;
82000;SDS011;71510;50.558;7.258;2023-10-09T20:36:10;15.10;;;8.50;;
82000;SDS011;71510;50.558;7.258;2023-10-09T20:38:49;15.38;;;8.43;;
82000;SDS011;71510;50.558;7.258;2023-10-09T20:41:16;12.13;;;8.08;;
82000;SDS011;71510;50.558;7.258;2023-10-09T20:43:45;15.78;;;9.43;;
82000;SDS011;71510;50.558;7.258;2023-10-09T20:46:12;13.98;;;8.40;;
82000;SDS011;71510;50.558;7.258;2023-10-09T20:48:41;15.95;;;8.63;;
82000;SDS011;71510;50.558;7.258;2023-10-09T20:51:12;12.43;;;8.65;;
82000;SDS011;71510;50.558;7.258;2023-10-09T20:53:41;13.78;;;8.55;;
82000;SDS011;71510;50.558;7.258;2023-10-09T20:56:08;15.18;;;8.65;;
82000;SDS011;71510;50.558;7.258;2023-10-09T20:58:37;16.77;;;8.83;;
82000;SDS011;71510;50.558;7.258;2023-10-09T21:01:07;12.70;;;8.40;;
82000;SDS011;71510;50.558;7.258;2023-10-09T21:03:47;12.53;;;8.43;;
82000;SDS011;71510;50.558;7.258;2023-10-09T21:06:15;16.35;;;8.65;;
82000;SDS011;71510;50.558;7.258;2023-10-09T21:08:45;15.48;;;8.30;;
82000;SDS011;71510;50.558;7.258;2023-10-09T21:11:12;11.55;;;7.53;;
82000;SDS011;71510;50.558;7.258;2023-10-09T21:13:39;15.90;;;8.18;;
82000;SDS011;71510;50.558;7.258;2023-10-09T21:16:08;13.45;;;9.33;;
82000;SDS011;71510;50.558;7.258;2023-10-09T21:18:38;19.50;;;8.98;;
82000;SDS011;71510;50.558;7.258;2023-10-09T21:21:07;12.58;;;7.92;;
82000;SDS011;71510;50.558;7.258;2023-10-09T21:23:54;14.03;;;8.33;;
82000;SDS011;71510;50.558;7.258;2023-10-09T21:26:22;13.53;;;8.38;;
82000;SDS011;71510;50.558;7.258;2023-10-09T21:28:50;13.83;;;9.28;;
82000;SDS011;71510;50.558;7.258;2023-10-09T21:31:18;16.45;;;8.95;;
82000;SDS011;71510;50.558;7.258;2023-10-09T21:33:46;18.75;;;8.45;;
82000;SDS011;71510;50.558;7.258;2023-10-09T21:36:15;15.53;;;8.68;;
82000;SDS011;71510;50.558;7.258;2023-10-09T21:38:43;13.10;;;7.83;;
82000;SDS011;71510;50.558;7.258;2023-10-09T21:41:11;13.40;;;7.80;;
82000;SDS011;71510;50.558;7.258;2023-10-09T21:43:43;14.18;;;7.53;;
82000;SDS011;71510;50.558;7.258;2023-10-09T21:46:07;14.47;;;8.33;;
82000;SDS011;71510;50.558;7.258;2023-10-09T21:48:36;15.83;;;8.90;;
82000;SDS011;71510;50.558;7.258;2023-10-09T21:51:07;13.95;;;8.10;;
82000;SDS011;71510;50.558;7.258;2023-10-09T21:53:34;10.50;;;8.30;;
82000;SDS011;71510;50.558;7.258;2023-10-09T21:56:05;11.68;;;7.95;;
82000;SDS011;71510;50.558;7.258;2023-10-09T21:58:33;11.75;;;7.50;;
82000;SDS011;71510;50.558;7.258;2023-10-09T22:01:01;13.75;;;8.23;;
82000;SDS011;71510;50.558;7.258;2023-10-09T22:03:29;13.15;;;7.92;;
82000;SDS011;71510;50.558;7.258;2023-10-09T22:05:56;10.20;;;7.78;;
82000;SDS011;71510;50.558;7.258;2023-10-09T22:08:24;14.07;;;7.45;;
82000;SDS011;71510;50.558;7.258;2023-10-09T22:10:52;13.35;;;7.80;;
82000;SDS011;71510;50.558;7.258;2023-10-09T22:13:19;11.40;;;7.15;;
82000;SDS011;71510;50.558;7.258;2023-10-09T22:15:47;13.43;;;8.45;;
82000;SDS011;71510;50.558;7.258;2023-10-09T22:18:15;17.62;;;8.13;;
82000;SDS011;71510;50.558;7.258;2023-10-09T22:20:50;16.42;;;8.48;;
82000;SDS011;71510;50.558;7.258;2023-10-09T22:23:20;20.52;;;8.55;;
82000;SDS011;71510;50.558;7.258;2023-10-09T22:25:49;15.55;;;8.13;;
82000;SDS011;71510;50.558;7.258;2023-10-09T22:28:24;12.80;;;8.00;;
82000;SDS011;71510;50.558;7.258;2023-10-09T22:30:52;12.93;;;8.03;;
82000;SDS011;71510;50.558;7.258;2023-10-09T22:33:19;13.60;;;8.05;;
82000;SDS011;71510;50.558;7.258;2023-10-09T22:35:48;13.45;;;7.92;;
82000;SDS011;71510;50.558;7.258;2023-10-09T22:38:17;14.03;;;7.83;;
82000;SDS011;71510;50.558;7.258;2023-10-09T22:40:46;13.25;;;7.35;;
82000;SDS011;71510;50.558;7.258;2023-10-09T22:43:18;13.88;;;8.95;;
82000;SDS011;71510;50.558;7.258;2023-10-09T22:45:50;12.98;;;8.33;;
82000;SDS011;71510;50.558;7.258;2023-10-09T22:48:18;14.30;;;8.30;;
82000;SDS011;71510;50.558;7.258;2023-10-09T22:50:47;11.95;;;8.10;;
82000;SDS011;71510;50.558;7.258;2023-10-09T22:53:16;13.80;;;8.03;;
82000;SDS011;71510;50.558;7.258;2023-10-09T22:55:51;14.03;;;8.18;;
82000;SDS011;71510;50.558;7.258;2023-10-09T22:58:19;11.73;;;7.62;;
82000;SDS011;71510;50.558;7.258;2023-10-09T23:00:58;15.85;;;8.48;;
82000;SDS011;71510;50.558;7.258;2023-10-09T23:03:24;15.05;;;8.65;;
82000;SDS011;71510;50.558;7.258;2023-10-09T23:06:01;10.82;;;7.20;;
82000;SDS011;71510;50.558;7.258;2023-10-09T23:08:37;11.68;;;6.83;;
82000;SDS011;71510;50.558;7.258;2023-10-09T23:11:08;19.45;;;8.60;;
82000;SDS011;71510;50.558;7.258;2023-10-09T23:13:38;13.28;;;7.35;;
82000;SDS011;71510;50.558;7.258;2023-10-09T23:16:08;10.43;;;8.03;;
82000;SDS011;71510;50.558;7.258;2023-10-09T23:18:37;12.90;;;7.72;;
82000;SDS011;71510;50.558;7.258;2023-10-09T23:21:12;10.70;;;7.28;;
82000;SDS011;71510;50.558;7.258;2023-10-09T23:23:41;10.78;;;7.80;;
82000;SDS011;71510;50.558;7.258;2023-10-09T23:26:08;12.70;;;7.15;;
82000;SDS011;71510;50.558;7.258;2023-10-09T23:28:37;13.95;;;7.53;;
82000;SDS011;71510;50.558;7.258;2023-10-09T23:31:05;13.62;;;7.72;;
82000;SDS011;71510;50.558;7.258;2023-10-09T23:33:40;12.93;;;7.92;;
82000;SDS011;71510;50.558;7.258;2023-10-09T23:36:07;13.10;;;8.68;;
82000;SDS011;71510;50.558;7.258;2023-10-09T23:38:36;17.87;;;10.15;;
82000;SDS011;71510;50.558;7.258;2023-10-09T23:41:05;11.85;;;8.28;;
82000;SDS011;71510;50.558;7.258;2023-10-09T23:43:34;16.37;;;9.68;;
82000;SDS011;71510;50.558;7.258;2023-10-09T23:46:03;12.80;;;8.58;;
82000;SDS011;71510;50.558;7.258;2023-10-09T23:48:32;12.73;;;8.13;;
82000;SDS011;71510;50.558;7.258;2023-10-09T23:51:00;14.58;;;9.00;;
82000;SDS011;71510;50.558;7.258;2023-10-09T23:53:31;13.78;;;8.38;;
82000;SDS011;71510;50.558;7.258;2023-10-09T23:56:06;13.50;;;8.18;;
82000;SDS011;71510;50.558;7.258;2023-10-09T23:58:37;15.50;;;8.13;;
